Terminal Aerodrome Forecast
Issued by NWS Binghamton, NY

Home | Current Version | Previous Version | Text Only | Print | Product List | Glossary On
Versions: 1 2 3 4 5 6 7 8 9 10 11 12 13
000
FTUS41 KBGM 012300
TAFSYR
TAF
KSYR 012334Z 0200/0224 08004KT P6SM SCT050
      TEMPO 0209/0213 5SM BR
     FM021400 12005KT P6SM SCT050=

USA.gov is the U.S. government's official web portal to all federal, state and local government web resources and services.